Latest Weather Observations for Batchelor

IDD60901

Issued at 9:15 pm CST Tuesday 30 September 2014 (issued every 10 minutes, with the page automatically refreshed every 10 minutes)

About weather observations | Map of Darwin area stations | Latest observations for Darwin area | Other Formats
Station Details ID: 014272 Name: BATCHELOR AIRPORT Lat: -13.05 Lon: 131.03 Height: 104.0 m
Data from the previous 72 hours. | See also: Recent months at Batchelor
Date/Time
CST
Tmp

°C
App
Tmp
°C
Dew
Point
°C
Rel
Hum
%
Delta-T

°C
Wind Press
QNH
hPa
Press
MSL
hPa
Rain
since
9 am
mm
Dir
 
Spd
km/h
Gust
km/h
Spd
kts
Gust
kts
30/09:00pm 27.6 29.3 19.4 61 5.3 W 9 13 5 7 1012.5 1011.9 0.0
30/08:30pm 28.1 29.7 19.1 58 5.8 W 9 15 5 8 1012.2 1011.6 0.0
30/08:00pm 28.6 29.9 19.2 56 6.1 W 11 19 6 10 1011.9 1011.3 0.0
30/07:30pm 29.1 30.2 19.7 57 6.2 W 13 20 7 11 1011.4 1010.8 0.0
30/07:00pm 29.8 31.0 19.8 55 6.6 W 13 22 7 12 1010.7 1010.0 0.0
30/06:30pm 31.2 32.5 19.2 48 7.9 W 11 17 6 9 1010.1 1009.4 0.0
30/06:00pm 33.4 32.9 11.9 27 12.8 SE 6 9 3 5 1009.5 1008.8 0.0
30/05:30pm 34.5 34.0 12.2 26 13.4 ESE 6 11 3 6 1009.3 1008.6 0.0
30/05:00pm 35.1 32.7 11.5 24 14.0 ESE 15 19 8 10 1009.0 1008.3 0.0
30/04:30pm 34.2 32.9 12.5 27 13.1 SSE 11 17 6 9 1009.1 1008.4 0.0
30/04:00pm 35.3 34.1 12.9 26 13.6 E 11 17 6 9 1009.4 1008.7 0.0
30/03:30pm 35.3 33.7 12.9 26 13.6 E 13 22 7 12 1009.6 1008.9 0.0
30/03:00pm 35.5 32.7 12.5 25 13.9 E 19 26 10 14 1010.0 1009.3 0.0
30/02:30pm 33.6 33.2 13.1 29 12.4 ESE 7 11 4 6 1010.3 1009.6 0.0
30/02:00pm 34.3 34.1 13.7 29 12.6 ESE 7 15 4 8 1010.8 1010.1 0.0
30/01:30pm 33.1 33.3 14.2 32 11.6 N 6 13 3 7 1011.2 1010.5 0.0
30/01:00pm 33.2 32.3 13.8 31 11.8 E 11 22 6 12 1011.9 1011.3 0.0
30/12:30pm 32.8 33.1 14.9 34 11.1 NNE 7 15 4 8 1012.5 1011.9 0.0
30/12:00pm 32.0 31.9 15.9 38 10.1 NE 11 17 6 9 1013.1 1012.4 0.0
30/11:30am 31.6 32.9 17.5 43 9.0 ENE 7 15 4 8 1013.7 1013.0 0.0
30/11:00am 31.0 32.0 17.7 45 8.5 NE 9 17 5 9 1014.1 1013.4 0.0
30/10:30am 30.5 31.7 18.2 47 7.9 NNE 9 22 5 12 1014.5 1013.8 0.0
30/10:00am 29.2 29.9 18.0 51 7.2 NNE 11 17 6 9 1014.8 1014.1 0.0
30/09:30am 28.5 29.9 18.6 55 6.4 NNE 9 15 5 8 1015.1 1014.4 0.0
30/09:00am 28.0 30.6 20.0 61 5.2 N 6 11 3 6 1015.1 1014.4 0.0
30/08:30am 26.7 29.1 20.1 67 4.3 N 7 11 4 6 1015.1 1014.4 0.0
30/08:00am 25.7 29.0 20.7 74 3.3 NE 4 6 2 3 1014.9 1014.2 0.0
30/07:30am 24.1 27.6 20.4 80 2.4 ENE 2 4 1 2 1014.6 1013.9 0.0
30/07:00am 21.4 24.6 18.8 85 1.6 CALM 0 0 0 0 1014.3 1013.6 0.0
30/06:30am 21.5 24.6 18.7 84 1.8 CALM 0 0 0 0 1014.1 1013.4 0.0
30/06:00am 21.6 24.4 18.0 80 2.2 CALM 0 2 0 1 1013.9 1013.2 0.0
30/05:30am 22.1 24.3 18.3 79 2.4 ENE 4 4 2 2 1013.7 1013.0 0.0
30/05:00am 23.2 25.3 18.9 77 2.7 ENE 6 7 3 4 1013.5 1012.8 0.0
30/04:30am 22.2 24.0 18.4 79 2.4 WSW 6 7 3 4 1013.1 1012.4 0.0
30/04:00am 21.6 24.0 18.0 80 2.2 WSW 2 4 1 2 1012.8 1012.1 0.0
30/03:30am 21.8 24.7 18.2 80 2.3 CALM 0 0 0 0 1012.6 1012.0 0.0
30/03:00am 21.6 24.2 17.6 78 2.5 CALM 0 0 0 0 1012.4 1011.8 0.0
30/02:30am 22.1 25.0 18.3 79 2.4 CALM 0 0 0 0 1012.5 1011.9 0.0
30/02:00am 22.3 25.2 18.3 78 2.5 CALM 0 0 0 0 1012.5 1011.9 0.0
30/01:30am 22.3 25.0 17.7 75 2.9 CALM 0 0 0 0 1012.8 1012.1 0.0
30/01:00am 22.5 25.1 17.4 73 3.2 CALM 0 0 0 0 1013.0 1012.3 0.0
30/12:30am 23.2 26.1 18.1 73 3.2 CALM 0 0 0 0 1013.1 1012.4 0.0
30/12:00am 23.8 26.6 18.0 70 3.6 WSW 0 0 0 0 1013.2 1012.5 0.0
 
Date/Time
CST
Tmp

°C
App
Tmp
°C
Dew
Point
°C
Rel
Hum
%
Delta-T

°C
Wind Press
QNH
hPa
Press
MSL
hPa
Rain
since
9 am
mm
Dir
 
Spd
km/h
Gust
km/h
Spd
kts
Gust
kts
29/11:30pm 24.2 26.9 17.7 67 4.1 CALM 0 0 0 0 1013.1 1012.4 0.0
29/11:00pm 25.0 27.1 17.2 62 4.9 WSW 2 2 1 1 1013.0 1012.3 0.0
29/10:30pm 26.0 27.9 17.6 60 5.3 W 4 7 2 4 1012.8 1012.1 0.0
29/10:00pm 26.4 27.7 17.2 57 5.8 WNW 6 9 3 5 1012.6 1012.0 0.0
29/09:30pm 27.0 28.0 16.9 54 6.3 WNW 7 11 4 6 1012.3 1011.7 0.0
29/09:00pm 27.6 28.6 16.9 52 6.7 WNW 7 13 4 7 1012.0 1011.4 0.0
29/08:30pm 28.1 28.3 15.7 46 7.6 NW 9 15 5 8 1011.6 1011.0 0.0
29/08:00pm 28.6 28.4 14.8 43 8.4 NW 9 13 5 7 1011.2 1010.5 0.0
29/07:30pm 29.6 29.4 14.6 40 9.1 WNW 9 15 5 8 1010.8 1010.1 0.0
29/07:00pm 30.4 30.7 16.0 41 9.0 W 9 15 5 8 1010.4 1009.7 0.0
29/06:30pm 31.1 31.2 15.5 39 9.7 W 9 15 5 8 1010.0 1009.3 0.0
29/06:00pm 31.7 31.1 15.6 37 10.0 W 13 22 7 12 1009.6 1008.9 0.0
29/05:30pm 33.2 33.6 15.2 33 11.2 NNW 7 15 4 8 1009.2 1008.5 0.0
29/05:00pm 34.4 33.6 10.9 24 13.8 NE 6 9 3 5 1008.8 1008.1 0.0
29/04:30pm 34.4 33.4 10.9 24 13.8 E 7 13 4 7 1008.9 1008.2 0.0
29/04:00pm 34.6 33.8 11.1 24 13.8 N 6 13 3 7 1009.0 1008.3 0.0
29/03:30pm 33.7 32.7 10.9 25 13.4 ENE 7 17 4 9 1009.3 1008.6 0.0
29/03:00pm 34.6 34.0 11.7 25 13.6 NE 6 11 3 6 1009.5 1008.8 0.0
29/02:30pm 33.4 32.7 11.9 27 12.8 N 7 11 4 6 1009.8 1009.1 0.0
29/02:00pm 34.5 34.0 12.8 27 13.1 WSW 7 13 4 7 1010.4 1009.7 0.0
29/01:30pm 34.3 33.6 13.2 28 12.8 NW 9 20 5 11 1010.9 1010.2 0.0
29/01:00pm 32.7 32.6 13.4 31 11.7 NNE 6 13 3 7 1011.7 1011.1 0.0
29/12:30pm 33.1 32.9 13.7 31 11.8 NNW 7 17 4 9 1012.3 1011.7 0.0
29/12:00pm 32.5 32.2 13.2 31 11.6 ENE 7 15 4 8 1013.0 1012.3 0.0
29/11:30am 31.9 31.4 15.0 36 10.4 WNW 11 19 6 10 1013.6 1012.9 0.0
29/11:00am 31.7 31.8 13.9 34 10.8 ENE 6 13 3 7 1014.0 1013.3 0.0
29/10:30am 31.2 31.4 14.8 37 10.1 N 7 19 4 10 1014.2 1013.5 0.0
29/10:00am 29.6 30.0 15.3 41 8.8 N 7 15 4 8 1014.3 1013.6 0.0
29/09:30am 29.3 29.9 16.8 47 7.9 N 9 17 5 9 1014.2 1013.5 0.0
29/09:00am 28.2 30.3 19.4 59 5.7 NNW 7 11 4 6 1014.1 1013.4 0.0
29/08:30am 27.2 29.8 20.5 67 4.4 NNW 7 13 4 7 1014.0 1013.3 0.0
29/08:00am 25.6 28.8 20.6 74 3.3 N 4 7 2 4 1013.7 1013.0 0.0
29/07:30am 22.7 26.3 19.7 83 1.9 CALM 0 0 0 0 1013.5 1012.8 0.0
29/07:00am 21.4 24.7 19.1 87 1.5 CALM 0 0 0 0 1013.4 1012.7 0.0
29/06:30am 21.5 24.5 18.5 83 1.9 CALM 0 0 0 0 1012.9 1012.2 0.0
29/06:00am 23.1 25.3 19.5 80 2.3 N 7 11 4 6 1012.2 1011.6 0.0
29/05:30am 21.5 23.7 18.3 82 2.0 N 4 6 2 3 1012.0 1011.4 0.0
29/05:00am 22.4 25.0 18.4 78 2.5 NNE 2 4 1 2 1011.6 1011.0 0.0
29/04:30am 23.3 25.6 18.6 75 3.0 NNE 4 6 2 3 1011.5 1010.9 0.0
29/04:00am 23.9 26.5 19.2 75 3.0 NNE 4 7 2 4 1011.4 1010.8 0.0
29/03:30am 23.9 26.2 19.4 76 2.9 N 6 7 3 4 1011.3 1010.7 0.0
29/03:00am 24.2 26.4 19.5 75 3.0 N 7 9 4 5 1011.4 1010.8 0.0
29/02:30am 24.0 26.2 19.1 74 3.1 N 6 9 3 5 1011.4 1010.8 0.0
29/02:00am 23.8 26.2 18.7 73 3.2 N 4 6 2 3 1011.5 1010.9 0.0
29/01:30am 23.6 26.0 18.0 71 3.5 N 2 4 1 2 1011.8 1011.2 0.0
29/01:00am 24.5 26.9 18.9 71 3.6 N 4 6 2 3 1012.1 1011.5 0.0
29/12:30am 25.3 28.0 19.4 70 3.8 NNE 4 7 2 4 1012.4 1011.8 0.0
29/12:00am 25.4 27.9 19.1 68 4.1 NNE 4 7 2 4 1012.4 1011.8 0.0
 
Date/Time
CST
Tmp

°C
App
Tmp
°C
Dew
Point
°C
Rel
Hum
%
Delta-T

°C
Wind Press
QNH
hPa
Press
MSL
hPa
Rain
since
9 am
mm
Dir
 
Spd
km/h
Gust
km/h
Spd
kts
Gust
kts
28/11:30pm 25.2 27.4 19.1 69 3.9 W 6 15 3 8 1012.2 1011.6 0.0
28/11:00pm 25.3 27.7 18.7 67 4.2 SW 4 7 2 4 1011.9 1011.3 0.0
28/10:30pm 26.1 28.5 18.8 64 4.7 W 4 7 2 4 1011.9 1011.3 0.0
28/10:00pm 26.6 28.0 17.4 57 5.8 W 6 9 3 5 1011.7 1011.1 0.0
28/09:30pm 27.3 28.2 16.6 52 6.7 W 7 11 4 6 1011.4 1010.8 0.0
28/09:00pm 27.9 28.4 15.5 46 7.6 W 7 13 4 7 1011.1 1010.4 0.0
28/08:30pm 28.1 28.7 15.4 46 7.8 WNW 6 9 3 5 1010.9 1010.2 0.0
28/08:00pm 29.0 28.7 14.4 41 8.8 W 9 15 5 8 1010.6 1009.9 0.0
28/07:30pm 29.7 29.4 14.3 39 9.4 WNW 9 17 5 9 1010.0 1009.3 0.0
28/07:00pm 30.6 30.4 14.7 38 9.7 W 9 17 5 9 1009.5 1008.8 0.0
28/06:30pm 31.8 31.1 14.4 34 10.7 W 11 19 6 10 1009.3 1008.6 0.0
28/06:00pm 33.0 31.6 14.6 33 11.4 WNW 15 24 8 13 1009.0 1008.3 0.0
28/05:30pm 35.1 34.8 14.4 29 12.9 N 9 19 5 10 1008.6 1007.9 0.0
28/05:00pm 36.0 34.0 8.7 19 15.6 NE 9 13 5 7 1008.5 1007.8 0.0
28/04:30pm 36.6 35.1 8.4 18 16.1 SSE 6 11 3 6 1008.5 1007.8 0.0
28/04:00pm 37.1 35.5 8.8 18 16.3 SW 7 17 4 9 1008.6 1007.9 0.0
28/03:30pm 36.6 35.1 9.2 19 15.9 SW 7 15 4 8 1008.9 1008.2 0.0
28/03:00pm 36.5 34.8 9.9 20 15.5 S 9 20 5 11 1009.4 1008.7 0.0
28/02:30pm 35.6 34.5 9.9 21 15.0 N 6 11 3 6 1009.8 1009.1 0.0
28/02:00pm 35.9 34.9 10.2 21 15.0 SE 6 13 3 7 1010.4 1009.7 0.0
28/01:30pm 36.1 34.0 11.0 22 14.9 E 13 19 7 10 1010.9 1010.2 0.0
28/01:00pm 35.9 34.1 10.9 22 14.8 NNE 11 24 6 13 1011.6 1011.0 0.0
28/12:30pm 35.3 33.7 11.7 24 14.1 ENE 11 17 6 9 1012.4 1011.8 0.0
28/12:00pm 34.1 33.7 13.0 28 12.8 NW 7 15 4 8 1013.2 1012.5 0.0
28/11:30am 32.9 32.7 13.5 30 11.8 N 7 15 4 8 1013.8 1013.1 0.0
28/11:00am 32.8 32.5 14.4 33 11.3 N 9 17 5 9 1014.2 1013.5 0.0
28/10:30am 32.3 32.4 14.4 33 11.0 NW 7 15 4 8 1014.7 1014.0 0.0
28/10:00am 31.4 31.6 15.8 39 9.7 NW 9 19 5 10 1015.0 1014.3 0.0
28/09:30am 30.7 31.3 16.7 43 8.8 WNW 9 15 5 8 1015.2 1014.5 0.0
28/09:00am 29.1 30.4 18.5 52 6.8 WNW 9 15 5 8 1015.3 1014.6 0.0
28/08:30am 27.6 29.9 19.9 63 5.0 W 7 11 4 6 1015.1 1014.4 0.0
28/08:00am 25.9 28.9 20.9 74 3.3 W 6 11 3 6 1014.8 1014.1 0.0
28/07:30am 24.3 28.5 21.0 82 2.2 CALM 0 0 0 0 1014.5 1013.8 0.0
28/07:00am 22.9 26.6 20.8 88 1.4 W 2 4 1 2 1014.3 1013.6 0.0
28/06:30am 22.8 26.1 20.7 88 1.4 W 4 7 2 4 1014.0 1013.3 0.0
28/06:00am 22.6 25.4 20.5 88 1.4 WSW 6 9 3 5 1013.9 1013.2 0.0
28/05:30am 22.0 24.7 20.6 92 0.9 WSW 7 9 4 5 1013.9 1013.2 0.0
28/05:00am 21.6 25.2 19.7 89 1.2 CALM 0 0 0 0 1013.8 1013.1 0.0
28/04:30am 21.6 24.9 19.0 85 1.6 CALM 0 0 0 0 1013.6 1012.9 0.0
28/04:00am 22.4 25.9 19.6 84 1.8 CALM 0 2 0 1 1013.4 1012.7 0.0
28/03:30am 23.0 26.0 20.1 84 1.9 N 4 6 2 3 1013.2 1012.5 0.0
28/03:00am 23.2 26.2 20.0 82 2.1 N 4 6 2 3 1013.2 1012.5 0.0
28/02:30am 23.2 26.7 19.6 80 2.3 CALM 0 0 0 0 1013.3 1012.6 0.0
28/02:00am 23.8 26.9 19.5 77 2.8 N 2 4 1 2 1013.4 1012.7 0.0
28/01:30am 24.2 26.7 19.9 77 2.8 W 6 7 3 4 1013.4 1012.7 0.0
28/01:00am 24.1 26.5 19.6 76 2.9 N 6 7 3 4 1013.6 1012.9 0.0
28/12:30am 24.5 26.6 19.3 73 3.3 N 7 13 4 7 1013.7 1013.0 0.0
28/12:00am 24.7 27.4 19.5 73 3.4 WSW 4 6 2 3 1013.7 1013.0 0.0
 
Date/Time
CST
Tmp

°C
App
Tmp
°C
Dew
Point
°C
Rel
Hum
%
Delta-T

°C
Wind Press
QNH
hPa
Press
MSL
hPa
Rain
since
9 am
mm
Dir
 
Spd
km/h
Gust
km/h
Spd
kts
Gust
kts
27/11:30pm 25.0 27.2 19.1 70 3.8 W 6 7 3 4 1013.7 1013.0 0.0
27/11:00pm 25.4 27.6 19.1 68 4.0 WSW 6 11 3 6 1013.7 1013.0 0.0
27/10:30pm 26.0 28.1 19.4 67 4.3 W 7 11 4 6 1013.6 1012.9 0.0
27/10:00pm 26.7 28.9 19.6 65 4.6 W 7 13 4 7 1013.5 1012.8 0.0
27/09:30pm 27.1 28.8 19.4 62 5.0 W 9 15 5 8 1013.4 1012.7 0.0

Latest Capital City Observations: Canberra | Sydney | Melbourne | Brisbane | Adelaide | Perth | Hobart | Darwin

Other Formats:

Comma delimited format used in spreadsheet applications
http://www.bom.gov.au/fwo/IDD60901/IDD60901.94125.axf

JavaScript Object Notation format (JSON) in row-major order
http://www.bom.gov.au/fwo/IDD60901/IDD60901.94125.json